Time;durP1;ratioP1;P1;durP2;ratioP2;P2;SDS_P1;SDS_P2;PMS_P1;PMS_P2;Temp;Humidity;BMP_temperature;BMP_pressure;BME280_temperature;BME280_humidity;BME280_pressure;Samples;Min_cycle;Max_cycle;Signal;HPM_P1;HPM_P2
2021/07/21 00:01:47;;;;;;;20.60;11.02;;;21.40;94.00;;;;;;5011909;28;20033;-78
2021/07/21 00:04:13;;;;;;;21.70;11.57;;;21.40;94.10;;;;;;5013984;28;20120;-78
2021/07/21 00:06:39;;;;;;;25.77;11.82;;;21.40;94.20;;;;;;5013783;28;20022;-78
2021/07/21 00:09:05;;;;;;;27.08;11.85;;;21.40;94.30;;;;;;5013817;28;20428;-78
2021/07/21 00:14:24;;;;;;;25.52;13.32;;;21.30;94.60;;;;;;5013100;28;20037;-78
2021/07/21 00:17:03;;;;;;;23.02;12.52;;;21.20;94.50;;;;;;5013405;28;20109;-78
2021/07/21 00:22:13;;;;;;;20.17;12.65;;;21.20;94.70;;;;;;5012373;28;20084;-78
2021/07/21 00:24:41;;;;;;;24.30;13.55;;;21.10;94.80;;;;;;5011643;28;20026;-78
2021/07/21 00:27:06;;;;;;;30.95;13.38;;;21.10;95.00;;;;;;5013902;28;20470;-78
2021/07/21 00:29:32;;;;;;;31.63;14.07;;;21.10;95.10;;;;;;5013868;28;20080;-78
2021/07/21 00:31:58;;;;;;;24.48;13.13;;;21.10;95.30;;;;;;5013628;28;20030;-78
2021/07/21 00:34:23;;;;;;;26.98;13.98;;;21.00;95.10;;;;;;5012886;28;20125;-78
2021/07/21 00:36:49;;;;;;;34.67;14.88;;;21.00;95.20;;;;;;5013188;28;20022;-78
2021/07/21 00:39:15;;;;;;;25.75;14.20;;;21.00;95.30;;;;;;5013404;28;20440;-78
2021/07/21 00:41:41;;;;;;;30.60;15.48;;;21.00;95.60;;;;;;5013435;28;20026;-78
2021/07/21 00:44:07;;;;;;;28.70;14.48;;;21.00;95.50;;;;;;5013691;28;20026;-78
2021/07/21 00:46:35;;;;;;;25.45;14.63;;;20.90;95.50;;;;;;5012861;28;20429;-78
2021/07/21 00:49:01;;;;;;;25.48;14.70;;;20.90;95.70;;;;;;5008419;28;20361;-78
2021/07/21 00:51:26;;;;;;;29.65;15.60;;;20.80;95.70;;;;;;4993497;28;20030;-78
2021/07/21 00:53:52;;;;;;;27.45;14.60;;;20.80;95.90;;;;;;4993796;28;20045;-78
2021/07/21 00:56:19;;;;;;;27.23;15.20;;;20.80;96.00;;;;;;5008303;28;20037;-78
2021/07/21 00:58:45;;;;;;;28.58;15.95;;;20.70;96.10;;;;;;4993693;28;20034;-78
2021/07/21 01:01:11;;;;;;;25.88;14.93;;;20.70;96.20;;;;;;4992810;28;20040;-78
2021/07/21 01:03:36;;;;;;;25.88;15.43;;;20.60;96.30;;;;;;4993115;28;20105;-78
2021/07/21 01:06:03;;;;;;;26.92;15.52;;;20.60;96.50;;;;;;4993285;28;20085;-78
2021/07/21 01:08:30;;;;;;;29.48;16.52;;;20.60;96.60;;;;;;4993406;28;20110;-78
2021/07/21 01:11:19;;;;;;;26.92;16.33;;;20.50;96.60;;;;;;4991202;28;20038;-78
2021/07/21 01:14:05;;;;;;;29.85;16.60;;;20.50;96.70;;;;;;5006870;28;20464;-78
2021/07/21 01:16:38;;;;;;;28.85;16.33;;;20.50;97.00;;;;;;4992829;28;20034;-78
2021/07/21 01:19:17;;;;;;;32.88;16.60;;;20.40;97.10;;;;;;4992995;28;20037;-78
2021/07/21 01:21:45;;;;;;;36.30;17.73;;;20.40;97.20;;;;;;4992215;28;20042;-78
2021/07/21 01:24:27;;;;;;;25.40;17.25;;;20.40;97.30;;;;;;4991430;28;20030;-78
2021/07/21 01:26:56;;;;;;;30.10;18.50;;;20.30;97.30;;;;;;4993169;28;20497;-77
2021/07/21 01:29:26;;;;;;;25.90;17.90;;;20.30;97.30;;;;;;5007678;28;20121;-77
2021/07/21 01:31:55;;;;;;;32.88;18.00;;;20.30;97.40;;;;;;4992166;28;20482;-77
2021/07/21 01:34:25;;;;;;;29.40;18.92;;;20.30;97.80;;;;;;5005400;28;20451;-78
2021/07/21 01:36:54;;;;;;;30.45;18.02;;;20.30;97.60;;;;;;5010538;28;20033;-78
2021/07/21 01:39:28;;;;;;;30.88;17.92;;;20.20;97.80;;;;;;5011707;28;20037;-78
2021/07/21 01:41:58;;;;;;;33.90;19.50;;;20.20;97.80;;;;;;5011909;28;20025;-78
2021/07/21 01:44:28;;;;;;;34.75;19.13;;;20.20;97.80;;;;;;5011836;28;20033;-78
2021/07/21 01:46:56;;;;;;;36.00;19.73;;;20.20;97.90;;;;;;5012044;28;20021;-78
2021/07/21 01:49:23;;;;;;;30.48;19.42;;;20.20;98.00;;;;;;5004792;28;20031;-78
2021/07/21 01:51:50;;;;;;;35.60;19.83;;;20.10;98.00;;;;;;4992127;28;20023;-78
2021/07/21 01:54:18;;;;;;;31.83;19.67;;;20.10;98.00;;;;;;4992347;28;20026;-78
2021/07/21 01:56:46;;;;;;;34.17;19.92;;;20.10;98.10;;;;;;4992317;28;20030;-78
2021/07/21 01:59:12;;;;;;;30.98;19.25;;;20.10;98.10;;;;;;5007158;28;20030;-77
2021/07/21 02:01:39;;;;;;;34.72;20.55;;;20.10;98.20;;;;;;4991580;28;20037;-77
2021/07/21 02:04:07;;;;;;;31.88;19.77;;;20.10;98.10;;;;;;4991650;28;20058;-78
2021/07/21 02:06:34;;;;;;;33.78;19.35;;;20.10;98.20;;;;;;4992195;28;20026;-78
2021/07/21 02:09:01;;;;;;;28.27;19.50;;;20.10;98.10;;;;;;4992186;28;20425;-78
2021/07/21 02:11:27;;;;;;;37.85;20.70;;;20.10;98.40;;;;;;4991807;28;20105;-78
2021/07/21 02:13:59;;;;;;;34.30;20.67;;;20.00;98.20;;;;;;4991497;28;20026;-78
2021/07/21 02:16:25;;;;;;;38.95;21.00;;;20.00;98.20;;;;;;4990493;28;20034;-78
2021/07/21 02:18:56;;;;;;;31.88;20.13;;;20.00;98.20;;;;;;4992333;28;20508;-78
2021/07/21 02:21:24;;;;;;;32.53;21.58;;;20.00;98.40;;;;;;4991688;28;20397;-78
2021/07/21 02:23:51;;;;;;;32.05;20.85;;;19.90;98.50;;;;;;4990307;28;20018;-78
2021/07/21 02:26:18;;;;;;;31.98;19.70;;;19.90;98.60;;;;;;5006665;28;20031;-78
2021/07/21 02:28:45;;;;;;;32.53;20.67;;;19.90;98.60;;;;;;4991454;28;20022;-78
2021/07/21 02:31:26;;;;;;;36.38;21.38;;;19.90;98.70;;;;;;4990716;28;20076;-78
2021/07/21 02:34:02;;;;;;;31.45;21.58;;;19.80;98.70;;;;;;5000862;28;20026;-78
2021/07/21 02:36:32;;;;;;;31.42;20.42;;;19.80;98.80;;;;;;5011524;28;20046;-78
2021/07/21 02:38:59;;;;;;;35.53;21.58;;;19.80;99.00;;;;;;5009804;28;20501;-78
2021/07/21 02:41:25;;;;;;;34.00;21.25;;;19.80;98.90;;;;;;5011136;28;20109;-78
2021/07/21 02:43:51;;;;;;;30.73;21.05;;;19.70;99.30;;;;;;5011183;28;20046;-78
2021/07/21 02:46:17;;;;;;;32.35;20.73;;;19.70;99.10;;;;;;5011214;28;20840;-78
2021/07/21 02:48:45;;;;;;;31.25;21.25;;;19.70;99.20;;;;;;5008961;28;20511;-78
2021/07/21 02:51:27;;;;;;;33.80;21.27;;;19.60;99.10;;;;;;5010877;28;20036;-78
2021/07/21 02:54:22;;;;;;;35.58;23.20;;;19.60;99.30;;;;;;5010967;28;20072;-78
2021/07/21 02:56:53;;;;;;;36.92;22.52;;;19.60;99.50;;;;;;5005924;28;20052;-78
2021/07/21 02:59:23;;;;;;;34.28;22.00;;;19.60;99.60;;;;;;5011235;28;20034;-78
2021/07/21 03:01:49;;;;;;;36.75;21.77;;;19.50;99.70;;;;;;5009378;28;20539;-78
2021/07/21 03:04:21;;;;;;;37.97;22.52;;;19.50;99.80;;;;;;5009500;28;20440;-78
2021/07/21 03:06:49;;;;;;;34.20;21.30;;;19.50;99.80;;;;;;5010979;28;20022;-78
2021/07/21 03:09:17;;;;;;;37.67;22.90;;;19.40;99.90;;;;;;5010649;28;20515;-78
2021/07/21 03:11:46;;;;;;;41.22;21.75;;;19.40;99.90;;;;;;5009739;28;20049;-78
2021/07/21 03:14:12;;;;;;;40.53;22.63;;;19.40;99.90;;;;;;5010500;28;20076;-78
2021/07/21 03:16:44;;;;;;;34.05;21.63;;;19.30;99.90;;;;;;5010647;28;20104;-78
2021/07/21 03:19:11;;;;;;;36.63;21.77;;;19.30;99.90;;;;;;5011070;28;20036;-77
2021/07/21 03:21:37;;;;;;;36.25;22.15;;;19.30;99.90;;;;;;5010261;28;20041;-77
2021/07/21 03:24:04;;;;;;;38.97;23.15;;;19.30;99.90;;;;;;5009876;28;20050;-77
2021/07/21 03:26:32;;;;;;;38.30;23.10;;;19.20;99.90;;;;;;5008904;28;20027;-77
2021/07/21 03:28:58;;;;;;;35.88;22.95;;;19.20;99.90;;;;;;4991395;28;20027;-77
2021/07/21 03:31:25;;;;;;;35.65;22.23;;;19.20;99.90;;;;;;4991005;28;20031;-77
2021/07/21 03:34:04;;;;;;;36.50;23.17;;;19.10;99.90;;;;;;5000677;28;20436;-77
2021/07/21 03:36:34;;;;;;;34.80;22.58;;;19.10;99.90;;;;;;5015019;28;20032;-77
2021/07/21 03:39:01;;;;;;;35.03;23.15;;;19.10;99.90;;;;;;5013780;28;20038;-77
2021/07/21 03:41:28;;;;;;;37.97;22.90;;;19.00;99.90;;;;;;5012464;28;20409;-77
2021/07/21 03:43:54;;;;;;;40.78;23.23;;;18.90;99.90;;;;;;5013823;28;20038;-77
2021/07/21 03:46:20;;;;;;;41.70;23.42;;;18.90;99.90;;;;;;5014286;28;20033;-77
2021/07/21 03:48:46;;;;;;;33.58;22.70;;;18.90;99.90;;;;;;5014062;28;20030;-77
2021/07/21 03:51:13;;;;;;;32.55;22.85;;;18.80;99.90;;;;;;5013786;28;20037;-77
2021/07/21 03:53:40;;;;;;;34.22;22.30;;;18.80;99.90;;;;;;5014068;28;20022;-77
2021/07/21 03:56:07;;;;;;;33.80;23.13;;;18.80;99.90;;;;;;5013182;28;20022;-77
2021/07/21 03:58:33;;;;;;;42.40;23.13;;;18.80;99.90;;;;;;5013911;28;20712;-77
2021/07/21 04:01:00;;;;;;;42.90;23.25;;;18.70;99.90;;;;;;5012466;28;20057;-77
2021/07/21 04:03:28;;;;;;;34.13;22.50;;;18.70;99.90;;;;;;5013811;28;20041;-77
2021/07/21 04:05:56;;;;;;;36.95;23.65;;;18.60;99.90;;;;;;5012258;28;20029;-77
2021/07/21 04:08:23;;;;;;;32.85;22.75;;;18.60;99.90;;;;;;5012208;28;20064;-77
2021/07/21 04:10:52;;;;;;;37.20;22.00;;;18.60;99.90;;;;;;5012110;28;20029;-78
2021/07/21 04:13:19;;;;;;;36.45;23.42;;;18.60;99.90;;;;;;5013376;28;20022;-78
2021/07/21 04:15:47;;;;;;;41.63;23.77;;;18.50;99.90;;;;;;5011506;28;20029;-78
2021/07/21 04:18:13;;;;;;;33.55;22.95;;;18.50;99.90;;;;;;5013306;28;20036;-78
2021/07/21 04:20:40;;;;;;;36.22;23.90;;;18.50;99.90;;;;;;5013134;28;20087;-78
2021/07/21 04:23:07;;;;;;;40.58;24.17;;;18.60;99.90;;;;;;5012884;28;20053;-78
2021/07/21 04:25:35;;;;;;;38.63;23.65;;;18.60;99.90;;;;;;5012044;28;20101;-77
2021/07/21 04:28:01;;;;;;;35.70;23.27;;;18.60;99.90;;;;;;5008501;28;20034;-77
2021/07/21 04:30:30;;;;;;;36.55;23.83;;;18.60;99.90;;;;;;4993610;28;20555;-77
2021/07/21 04:32:57;;;;;;;36.47;24.38;;;18.50;99.90;;;;;;4995125;28;20572;-77
2021/07/21 04:35:25;;;;;;;38.70;24.20;;;18.60;99.90;;;;;;5012953;28;20037;-77
2021/07/21 04:37:51;;;;;;;35.05;24.23;;;18.60;99.90;;;;;;5013030;28;20469;-77
2021/07/21 04:40:17;;;;;;;37.10;23.55;;;18.60;99.90;;;;;;5011563;28;20033;-77
2021/07/21 04:42:44;;;;;;;39.95;25.35;;;18.60;99.90;;;;;;5012913;28;20612;-77
2021/07/21 04:45:11;;;;;;;41.65;24.08;;;18.50;99.90;;;;;;5011567;28;20028;-77
2021/07/21 04:47:38;;;;;;;37.45;24.38;;;18.50;99.90;;;;;;5003531;28;20080;-77
2021/07/21 04:50:06;;;;;;;33.45;23.15;;;18.50;99.90;;;;;;5012796;28;20112;-78
2021/07/21 04:52:31;;;;;;;37.85;24.17;;;18.40;99.90;;;;;;5012185;28;20076;-78
2021/07/21 04:54:57;;;;;;;36.35;24.40;;;18.40;99.90;;;;;;5012552;28;20026;-77
2021/07/21 04:57:23;;;;;;;38.67;24.50;;;18.40;99.90;;;;;;5010585;28;20048;-77
2021/07/21 04:59:49;;;;;;;35.20;24.55;;;18.30;99.90;;;;;;5012968;28;20053;-77
2021/07/21 05:02:17;;;;;;;41.80;25.33;;;18.30;99.90;;;;;;5010767;28;20503;-77
2021/07/21 05:04:43;;;;;;;38.63;24.08;;;18.30;99.90;;;;;;5011417;28;20026;-78
2021/07/21 05:07:09;;;;;;;39.95;24.98;;;18.30;99.90;;;;;;5010852;28;20498;-78
2021/07/21 05:09:35;;;;;;;38.78;24.17;;;18.30;99.90;;;;;;5012329;28;20105;-78
2021/07/21 05:12:02;;;;;;;37.35;24.90;;;18.30;99.90;;;;;;5012539;28;20128;-78
2021/07/21 05:14:28;;;;;;;43.28;25.70;;;18.30;99.90;;;;;;5011927;28;20080;-77
2021/07/21 05:16:53;;;;;;;45.83;24.40;;;18.30;99.90;;;;;;5012003;28;20029;-77
2021/07/21 05:19:19;;;;;;;38.35;24.65;;;18.30;99.90;;;;;;5011203;28;20164;-77
2021/07/21 05:21:45;;;;;;;39.58;24.45;;;18.30;99.90;;;;;;5011215;28;20061;-77
2021/07/21 05:24:10;;;;;;;36.20;24.45;;;18.30;99.90;;;;;;5012225;28;20026;-77
2021/07/21 05:26:39;;;;;;;41.22;24.55;;;18.40;99.90;;;;;;5010418;28;20026;-78
2021/07/21 05:29:05;;;;;;;40.67;25.92;;;18.40;99.90;;;;;;5012195;28;20463;-78
2021/07/21 05:31:30;;;;;;;41.80;23.88;;;18.50;99.90;;;;;;5010773;28;20030;-78
2021/07/21 05:33:56;;;;;;;37.78;24.88;;;18.50;99.90;;;;;;5011600;28;20480;-78
2021/07/21 05:36:22;;;;;;;34.90;23.23;;;18.60;99.90;;;;;;5008268;28;20038;-78
2021/07/21 05:38:47;;;;;;;36.83;23.65;;;18.70;99.90;;;;;;5012383;28;20038;-78
2021/07/21 05:41:13;;;;;;;41.65;23.90;;;18.70;99.90;;;;;;5011708;28;20087;-78
2021/07/21 05:43:40;;;;;;;39.38;24.63;;;18.80;99.90;;;;;;5001714;28;20058;-78
2021/07/21 05:46:06;;;;;;;37.03;23.48;;;18.90;99.90;;;;;;5000679;28;20030;-77
2021/07/21 05:48:31;;;;;;;36.63;23.92;;;19.00;99.90;;;;;;5009128;28;20026;-77
2021/07/21 05:50:57;;;;;;;35.50;23.75;;;19.00;99.90;;;;;;5010368;28;20129;-77
2021/07/21 05:53:22;;;;;;;46.97;25.10;;;19.10;99.90;;;;;;5010039;28;20034;-77
2021/07/21 05:55:48;;;;;;;34.83;24.30;;;19.20;99.90;;;;;;5010720;28;20116;-77
2021/07/21 05:58:14;;;;;;;38.65;23.92;;;19.30;99.90;;;;;;5011295;28;20064;-77
2021/07/21 06:00:41;;;;;;;36.22;24.60;;;19.40;99.90;;;;;;5011988;28;20032;-77
2021/07/21 06:03:07;;;;;;;36.80;24.80;;;19.50;99.90;;;;;;5010958;28;20184;-78
2021/07/21 06:05:32;;;;;;;38.63;24.08;;;19.50;99.90;;;;;;5009775;28;20148;-78
2021/07/21 06:07:58;;;;;;;38.78;24.27;;;19.70;99.90;;;;;;5011136;28;20021;-77
2021/07/21 06:10:24;;;;;;;38.78;23.48;;;19.70;99.90;;;;;;5007721;28;20405;-77
2021/07/21 06:12:50;;;;;;;39.78;24.08;;;19.80;99.90;;;;;;5006705;28;20064;-77
2021/07/21 06:15:16;;;;;;;35.65;24.42;;;19.90;99.90;;;;;;4989712;28;20037;-77
2021/07/21 06:17:41;;;;;;;38.97;24.00;;;20.00;99.90;;;;;;4995411;28;20113;-77
2021/07/21 06:20:09;;;;;;;37.17;23.23;;;20.10;99.90;;;;;;5010120;28;20030;-77
2021/07/21 06:22:39;;;;;;;36.22;23.30;;;20.10;99.90;;;;;;5010445;28;20018;-77
2021/07/21 06:25:09;;;;;;;34.97;25.05;;;20.20;99.90;;;;;;5010705;28;20057;-77
2021/07/21 06:27:34;;;;;;;39.58;24.27;;;20.30;99.90;;;;;;5010632;28;20370;-77
2021/07/21 06:30:06;;;;;;;36.97;23.10;;;20.40;99.90;;;;;;5011159;28;20040;-77
2021/07/21 06:32:32;;;;;;;40.78;24.30;;;20.50;99.90;;;;;;5009255;28;20493;-77
2021/07/21 06:34:58;;;;;;;36.05;22.77;;;20.60;99.90;;;;;;5009907;28;20030;-77
2021/07/21 06:37:23;;;;;;;37.50;24.25;;;20.70;99.90;;;;;;5010791;28;20046;-77
2021/07/21 06:39:49;;;;;;;37.47;23.60;;;20.80;99.90;;;;;;5010718;28;20068;-77
2021/07/21 06:42:14;;;;;;;36.10;23.38;;;20.90;99.60;;;;;;5010493;28;20046;-78
2021/07/21 06:44:40;;;;;;;40.50;23.90;;;21.00;99.20;;;;;;5010820;28;20042;-77
2021/07/21 06:47:06;;;;;;;31.98;23.05;;;21.10;99.00;;;;;;4993900;28;20093;-77
2021/07/21 06:49:32;;;;;;;38.25;23.00;;;21.30;98.80;;;;;;4990516;28;20026;-77
2021/07/21 06:51:57;;;;;;;38.45;22.33;;;21.30;98.60;;;;;;4999150;28;20033;-77
2021/07/21 06:54:23;;;;;;;37.10;23.23;;;21.50;98.60;;;;;;5009142;28;20053;-77
2021/07/21 06:56:48;;;;;;;32.53;23.30;;;21.60;98.20;;;;;;5009898;28;20404;-76
2021/07/21 06:59:14;;;;;;;47.42;24.92;;;21.70;97.80;;;;;;5009828;28;20030;-77
2021/07/21 07:01:40;;;;;;;35.53;23.13;;;21.80;97.70;;;;;;5009768;28;20033;-77
2021/07/21 07:04:05;;;;;;;41.35;24.20;;;21.90;97.60;;;;;;5009851;28;20026;-77
2021/07/21 07:06:31;;;;;;;37.92;22.95;;;21.90;97.70;;;;;;5005962;28;20021;-77
2021/07/21 07:08:56;;;;;;;35.92;24.88;;;22.10;97.50;;;;;;5012256;28;20533;-77
2021/07/21 07:11:22;;;;;;;33.72;23.13;;;22.10;97.20;;;;;;5012729;28;20030;-77
2021/07/21 07:13:48;;;;;;;34.72;23.92;;;22.30;96.80;;;;;;5014204;28;20030;-77
2021/07/21 07:16:14;;;;;;;34.00;22.55;;;22.40;96.70;;;;;;5013450;28;20029;-79
2021/07/21 07:18:40;;;;;;;35.72;22.85;;;22.50;96.80;;;;;;5012568;28;20034;-76
2021/07/21 07:21:06;;;;;;;35.30;22.38;;;22.60;96.10;;;;;;5013779;28;20033;-76
2021/07/21 07:23:31;;;;;;;32.10;22.17;;;22.70;96.00;;;;;;5014339;28;20053;-76
2021/07/21 07:25:57;;;;;;;37.00;22.88;;;22.80;96.00;;;;;;5012886;28;20010;-76
2021/07/21 07:28:23;;;;;;;38.22;22.33;;;22.90;95.90;;;;;;5029891;28;20025;-76
2021/07/21 07:30:48;;;;;;;37.70;22.55;;;23.10;95.60;;;;;;5032133;28;20025;-76
2021/07/21 07:33:14;;;;;;;34.45;22.42;;;23.20;95.50;;;;;;5028895;28;20029;-77
2021/07/21 07:35:40;;;;;;;34.85;22.30;;;23.40;95.10;;;;;;5013852;28;20449;-77
2021/07/21 07:38:11;;;;;;;37.45;23.10;;;23.60;95.00;;;;;;5012474;28;20030;-76
2021/07/21 07:40:38;;;;;;;32.83;22.48;;;23.80;94.50;;;;;;5013677;28;20058;-76
2021/07/21 07:43:03;;;;;;;32.60;21.55;;;24.00;94.30;;;;;;5013019;28;20069;-77
2021/07/21 07:45:30;;;;;;;33.08;22.73;;;24.60;94.20;;;;;;5013211;28;20030;-77
2021/07/21 07:47:56;;;;;;;35.35;21.55;;;26.40;91.60;;;;;;5011264;28;20065;-77
2021/07/21 07:50:22;;;;;;;27.00;21.23;;;28.10;87.60;;;;;;5013055;28;20072;-77
2021/07/21 07:52:48;;;;;;;29.85;22.02;;;29.20;83.40;;;;;;5013475;28;20447;-77
2021/07/21 07:55:14;;;;;;;30.67;21.08;;;30.20;81.30;;;;;;5013149;28;20026;-79
2021/07/21 07:57:40;;;;;;;29.13;20.30;;;31.00;78.60;;;;;;5012258;28;20033;-78
2021/07/21 08:00:09;;;;;;;32.45;20.20;;;31.30;77.10;;;;;;5011197;28;20084;-78
2021/07/21 08:02:35;;;;;;;30.52;20.48;;;31.70;75.80;;;;;;5013252;28;20512;-78
2021/07/21 08:05:01;;;;;;;27.75;20.77;;;32.20;74.00;;;;;;5012029;28;20057;-78
2021/07/21 08:07:32;;;;;;;27.58;20.08;;;32.50;73.50;;;;;;5013727;28;20416;-78
2021/07/21 08:09:58;;;;;;;28.73;19.35;;;33.10;70.80;;;;;;5011601;28;20065;-78
2021/07/21 08:12:24;;;;;;;25.38;19.80;;;33.10;70.60;;;;;;5013075;28;20037;-78
2021/07/21 08:14:49;;;;;;;23.30;19.50;;;33.50;69.40;;;;;;5012240;28;20468;-78
2021/07/21 08:17:15;;;;;;;24.52;19.67;;;33.70;67.90;;;;;;5012094;28;20030;-78
2021/07/21 08:19:42;;;;;;;37.97;19.40;;;34.10;67.60;;;;;;5000420;28;20022;-77
2021/07/21 08:22:08;;;;;;;22.98;18.98;;;34.50;66.60;;;;;;5011042;28;20026;-77
2021/07/21 08:24:33;;;;;;;21.13;18.25;;;34.60;65.80;;;;;;5011836;28;20084;-78
2021/07/21 08:26:59;;;;;;;26.40;18.52;;;34.90;66.90;;;;;;5016212;28;20040;-78
2021/07/21 08:29:24;;;;;;;32.90;19.75;;;34.70;64.40;;;;;;5031044;28;20033;-78
2021/07/21 08:31:50;;;;;;;23.02;18.73;;;34.90;64.70;;;;;;5015680;28;20030;-78
2021/07/21 08:34:16;;;;;;;24.70;19.65;;;35.30;64.50;;;;;;5012094;28;20026;-78
2021/07/21 08:36:41;;;;;;;21.92;18.85;;;35.60;63.70;;;;;;5012239;28;20034;-77
2021/07/21 08:39:09;;;;;;;23.02;18.20;;;35.90;63.20;;;;;;5012650;28;20485;-79
2021/07/21 08:41:36;;;;;;;20.80;16.73;;;36.10;62.20;;;;;;5011833;28;20041;-79
2021/07/21 08:44:04;;;;;;;19.45;17.38;;;35.80;61.30;;;;;;5012683;28;20042;-78
2021/07/21 08:46:30;;;;;;;20.02;18.02;;;36.00;61.00;;;;;;5011389;28;20029;-79
2021/07/21 08:48:56;;;;;;;23.52;17.27;;;36.40;62.10;;;;;;5013154;28;20381;-79
2021/07/21 08:51:23;;;;;;;20.17;16.92;;;36.80;59.90;;;;;;4996313;28;20511;-75
2021/07/21 08:53:50;;;;;;;19.05;17.05;;;36.90;59.00;;;;;;5002241;28;20022;-74
2021/07/21 08:56:17;;;;;;;23.92;17.50;;;36.60;57.90;;;;;;5006310;28;20111;-75
2021/07/21 08:58:49;;;;;;;18.80;16.13;;;36.10;58.20;;;;;;5011938;28;20168;-75
2021/07/21 09:01:16;;;;;;;20.95;17.38;;;36.60;58.90;;;;;;5011518;28;20021;-76
2021/07/21 09:03:42;;;;;;;20.83;16.08;;;37.00;57.20;;;;;;5012314;28;20420;-75
2021/07/21 09:06:08;;;;;;;19.95;16.70;;;37.40;57.10;;;;;;5012409;28;20018;-76
2021/07/21 09:08:34;;;;;;;18.23;16.17;;;37.80;56.30;;;;;;5011919;28;20396;-75
2021/07/21 09:11:01;;;;;;;25.92;17.38;;;37.80;56.20;;;;;;5010192;28;20018;-76
2021/07/21 09:13:27;;;;;;;20.35;16.48;;;37.40;56.20;;;;;;4989028;28;20053;-76
2021/07/21 09:15:53;;;;;;;17.80;15.88;;;37.30;56.20;;;;;;4991145;28;20570;-76
2021/07/21 09:18:19;;;;;;;19.65;15.95;;;37.20;56.30;;;;;;4999615;28;20038;-76
2021/07/21 09:21:06;;;;;;;21.95;16.42;;;37.00;56.20;;;;;;5011550;28;20106;-76
2021/07/21 09:23:36;;;;;;;21.15;17.00;;;36.70;56.40;;;;;;5011812;28;20231;-76
2021/07/21 09:26:01;;;;;;;24.50;17.02;;;37.00;56.20;;;;;;5010848;28;20067;-76
2021/07/21 09:28:38;;;;;;;19.95;17.33;;;37.20;55.60;;;;;;5027498;28;20025;-75
2021/07/21 09:31:04;;;;;;;20.25;18.10;;;37.10;56.20;;;;;;5030513;28;20026;-75
2021/07/21 09:33:31;;;;;;;23.73;17.30;;;37.20;56.50;;;;;;5021304;28;20401;-75
2021/07/21 09:35:57;;;;;;;19.85;16.45;;;37.10;56.00;;;;;;5011234;28;20169;-75
2021/07/21 09:38:25;;;;;;;20.65;17.48;;;37.70;55.30;;;;;;5010902;28;20507;-76
2021/07/21 09:41:00;;;;;;;19.13;16.58;;;38.00;54.30;;;;;;5011292;28;20053;-76
2021/07/21 09:43:29;;;;;;;21.70;17.20;;;38.20;54.70;;;;;;5003207;28;20046;-75
2021/07/21 09:46:06;;;;;;;21.77;16.45;;;37.50;54.60;;;;;;4991473;28;20579;-76
2021/07/21 09:48:49;;;;;;;18.25;16.52;;;37.40;54.00;;;;;;4991757;28;20440;-75
2021/07/21 09:51:34;;;;;;;21.52;17.02;;;37.50;54.20;;;;;;5003831;28;20030;-75
2021/07/21 09:54:19;;;;;;;21.40;17.30;;;37.60;53.80;;;;;;5011137;28;20025;-76
2021/07/21 09:56:48;;;;;;;19.17;17.23;;;37.80;54.00;;;;;;5007475;28;20124;-75
2021/07/21 09:59:29;;;;;;;21.25;16.63;;;37.70;54.30;;;;;;5010812;28;20044;-75
2021/07/21 10:01:55;;;;;;;20.85;16.30;;;38.00;53.30;;;;;;5010772;28;20037;-75
2021/07/21 10:04:38;;;;;;;18.85;16.48;;;38.20;54.00;;;;;;5011383;28;20029;-75
2021/07/21 10:07:48;;;;;;;23.02;16.70;;;38.10;54.20;;;;;;5009349;28;20492;-75
2021/07/21 10:09:54;;;;;;;19.27;17.08;;;38.10;54.20;;;;;;5002619;28;20050;-75
2021/07/21 10:12:21;;;;;;;20.15;15.73;;;38.40;53.60;;;;;;4999962;28;20081;-75
2021/07/21 10:14:58;;;;;;;21.88;16.52;;;38.40;53.20;;;;;;5010806;28;20022;-75
2021/07/21 10:17:23;;;;;;;21.63;16.50;;;38.20;53.20;;;;;;5010185;28;20500;-75
2021/07/21 10:19:49;;;;;;;18.67;16.65;;;38.10;53.90;;;;;;5010635;28;20048;-75
2021/07/21 10:22:15;;;;;;;18.33;16.48;;;38.30;52.70;;;;;;5010619;28;20260;-76
2021/07/21 10:24:40;;;;;;;25.33;16.85;;;38.60;52.60;;;;;;5010595;28;20026;-75
2021/07/21 10:27:06;;;;;;;18.40;16.08;;;38.50;53.20;;;;;;5009121;28;20025;-75
2021/07/21 10:29:33;;;;;;;19.55;16.25;;;38.50;52.80;;;;;;5010037;28;20025;-75
2021/07/21 10:31:59;;;;;;;20.50;16.90;;;38.60;53.00;;;;;;5010431;28;20061;-76
2021/07/21 10:34:25;;;;;;;18.73;15.00;;;38.00;53.20;;;;;;5010113;28;20092;-75
2021/07/21 10:36:52;;;;;;;17.08;15.27;;;38.00;53.40;;;;;;5010529;28;20394;-75
2021/07/21 10:39:26;;;;;;;18.10;16.27;;;38.40;52.80;;;;;;5010383;28;20038;-75
2021/07/21 10:41:54;;;;;;;18.45;15.25;;;38.40;53.60;;;;;;5010633;28;20026;-76
2021/07/21 10:44:20;;;;;;;21.17;16.02;;;38.00;53.10;;;;;;5016728;28;20033;-75
2021/07/21 10:46:50;;;;;;;17.15;15.45;;;38.40;52.80;;;;;;5014087;28;20037;-76
2021/07/21 11:00:07;;;;;;;19.70;16.25;;;38.70;53.00;;;;;;5014590;28;20091;-76
2021/07/21 11:02:33;;;;;;;22.00;15.93;;;38.30;53.70;;;;;;5014476;28;20037;-76
2021/07/21 11:04:59;;;;;;;18.63;15.18;;;38.00;52.90;;;;;;5014433;28;20022;-76
2021/07/21 11:07:51;;;;;;;22.58;16.08;;;38.00;53.40;;;;;;5014938;28;20421;-76
2021/07/21 11:10:33;;;;;;;19.90;15.43;;;38.10;52.40;;;;;;5012592;28;20045;-75
2021/07/21 11:13:00;;;;;;;16.00;14.38;;;38.20;51.90;;;;;;5012019;28;20117;-76
2021/07/21 11:15:44;;;;;;;17.33;13.45;;;38.60;50.60;;;;;;5011360;28;20034;-76
2021/07/21 11:18:22;;;;;;;20.92;14.48;;;38.60;50.50;;;;;;5007860;28;20463;-77
2021/07/21 11:21:06;;;;;;;17.70;14.77;;;38.60;51.00;;;;;;5014815;28;20029;-77
2021/07/21 11:23:47;;;;;;;21.20;15.73;;;38.70;52.60;;;;;;5007960;28;20034;-76
2021/07/21 11:26:34;;;;;;;18.08;15.82;;;38.60;52.30;;;;;;5015951;28;20030;-77
2021/07/21 11:29:39;;;;;;;16.20;14.60;;;38.30;53.00;;;;;;5009850;28;20084;-77
2021/07/21 11:32:04;;;;;;;16.65;14.95;;;38.30;52.00;;;;;;5013501;28;20038;-76
2021/07/21 11:34:38;;;;;;;18.13;15.00;;;38.60;52.80;;;;;;5013986;28;20108;-77
2021/07/21 11:37:26;;;;;;;18.20;15.20;;;38.60;52.70;;;;;;5016488;28;20050;-78
2021/07/21 11:39:54;;;;;;;16.95;15.15;;;38.50;52.10;;;;;;5014760;28;20040;-77
2021/07/21 11:42:23;;;;;;;25.77;15.10;;;38.20;52.70;;;;;;5013601;28;20765;-77
2021/07/21 11:44:50;;;;;;;18.58;14.88;;;38.50;52.40;;;;;;5026112;28;20030;-77
2021/07/21 11:47:18;;;;;;;18.92;14.88;;;38.30;52.30;;;;;;5013710;28;20500;-77
2021/07/21 11:49:52;;;;;;;22.23;13.95;;;38.40;52.10;;;;;;5015843;28;20054;-78
2021/07/21 11:52:19;;;;;;;23.50;12.93;;;38.00;51.70;;;;;;5016422;28;20026;-76
2021/07/21 11:54:45;;;;;;;18.45;13.27;;;38.20;51.90;;;;;;5011443;28;20392;-77
2021/07/21 11:57:11;;;;;;;14.20;12.55;;;38.40;49.30;;;;;;5011149;28;20022;-76
2021/07/21 11:59:39;;;;;;;15.30;12.63;;;38.30;48.70;;;;;;5011525;28;20105;-76
2021/07/21 12:02:15;;;;;;;14.25;12.57;;;38.20;48.90;;;;;;5013060;28;20065;-76
2021/07/21 12:04:42;;;;;;;17.95;13.25;;;38.30;49.90;;;;;;5012374;28;20034;-76
2021/07/21 12:07:10;;;;;;;15.88;12.55;;;38.20;50.50;;;;;;5011757;28;20029;-76
2021/07/21 12:09:38;;;;;;;17.45;14.50;;;38.10;50.50;;;;;;5011898;28;20373;-75
2021/07/21 12:12:06;;;;;;;18.88;13.80;;;37.90;52.50;;;;;;5012098;28;20101;-76
2021/07/21 12:14:33;;;;;;;17.13;13.45;;;37.70;51.80;;;;;;5011630;28;20091;-76
2021/07/21 12:17:13;;;;;;;15.73;13.48;;;37.70;51.20;;;;;;5010505;28;20489;-75
2021/07/21 12:19:43;;;;;;;16.88;12.80;;;38.00;52.10;;;;;;5002315;28;20084;-76
2021/07/21 12:22:14;;;;;;;15.57;12.40;;;38.20;49.60;;;;;;5012116;28;20461;-75
2021/07/21 12:24:49;;;;;;;15.25;12.45;;;38.00;50.30;;;;;;5009381;28;20498;-75
2021/07/21 12:27:39;;;;;;;14.10;12.55;;;38.10;50.70;;;;;;5020010;28;20495;-75
2021/07/21 12:30:07;;;;;;;17.05;12.27;;;38.30;50.40;;;;;;4994704;28;20042;-76
2021/07/21 12:32:33;;;;;;;19.20;12.82;;;38.10;49.50;;;;;;4992669;28;20027;-76
2021/07/21 12:34:59;;;;;;;20.48;12.80;;;38.10;49.20;;;;;;5007546;28;20484;-76
2021/07/21 12:37:30;;;;;;;15.15;12.60;;;38.20;50.80;;;;;;4991654;28;20034;-76
2021/07/21 12:39:58;;;;;;;20.38;13.35;;;38.40;50.40;;;;;;4991787;28;20521;-76
2021/07/21 12:42:29;;;;;;;17.90;13.40;;;38.10;49.80;;;;;;4993154;28;20042;-76
2021/07/21 12:44:59;;;;;;;17.38;12.73;;;38.00;48.60;;;;;;4993025;28;20489;-76
2021/07/21 12:47:33;;;;;;;15.60;12.15;;;38.10;48.80;;;;;;4990412;28;20049;-76
2021/07/21 12:50:09;;;;;;;19.15;13.02;;;38.00;47.50;;;;;;4993400;28;20018;-76
2021/07/21 12:52:41;;;;;;;21.45;12.95;;;38.10;49.60;;;;;;5005706;28;20025;-76